首页
METAR-TAF:

METAR-TAF

机场 :

哥伦比亚, 南卡罗来纳州, 美国

纬度: 33-58-15N, 经度: 080-59-40W, 海拔: 64米

当前天气观测

该预报发布于53分钟前的18:53 UTC
风速3节,风向多变
温度 29°C
湿度 62%
气压 1021 hPa
能見度: 16.1公里
少量云层高于3200英尺

METAR: KCUB 251853Z AUTO VRB03KT 10SM FEW032 29/21 A3014 RMK AO2 SLP205 T02940206

时间: 15:46 (19:46 UTC)

预报

该预报发布于2小时和17分钟前的17:29 UTC
预报有效从25日的 18点(UTC)到 26日的 18点(UTC)
风速4节,风向东转东北
能見度: 10公里
散云层高于3000英尺
从 26日的 1000点(UTC)
风速3节,风向多变
能見度: 4.8公里
多云层高于1000英尺
轻雾
从 26日的 1400点(UTC)
风速5节,风向西南
能見度: 10公里
散云层高于3000英尺

TAF: KCUB 251729Z 2518/2618 07004KT P6SM SCT030 FM261000 VRB03KT 3SM BR BKN010 FM261400 23005KT P6SM SCT030

超过4000个机场的气象观测和天气预报(METAR&TAF报告)。

可查询的气象台以黄色和红色小点在地图上表示。

将鼠标移到小点上方,可查看气象台名称。

然后点击查看天气观测和预报。

如需切换地图:点击带黑十字的绿色按钮放大地图;点击带横线的绿色按钮缩小地图;或者点击绿色箭头查看邻近地区的地图。


METAR-TAF: